TUPJ/RAD METAR and TAF weather

Enter ICAO airport designator
Station Type Date Time Source
TUPJ METAR 2019/06/26 20:00 UTC NOAA

TUPJ 262000Z 13007KT 10SM FEW020 30/22 A3002 RMK Q1016 VIS 35KM


Station Type Date Time Source
TUPJ Decoded METAR 2019/06/26 20:00 UTC NOAA

Beef Island, Tortola, British Virgin Islands (TUPJ) 18-27N 064-32W
Jun 26, 2019 - 04:00 PM EDT / 2019.06.26 2000 UTC
Wind: from the SE (130 degrees) at 8 MPH (7 KT):0
Visibility: 10 mile(s):0
Sky conditions: mostly clear
Temperature: 86 F (30 C)
Heat index: 91.8 F (33.2 C):1
Dew Point: 71 F (22 C)
Relative Humidity: 62%
Pressure (altimeter): 30.02 in. Hg (1016 hPa)
ob: TUPJ 262000Z 13007KT 10SM FEW020 30/22 A3002 RMK Q1016 VIS 35KM
cycle: 20

Station Type Date Time Source
TUPJ TAF 2019/06/26 18:57 UTC NOAA

TAF TUPJ 261800Z 2618/2718 09015KT 9999 SCT020

Example: see airport list